Time;durP1;ratioP1;P1;durP2;ratioP2;P2;SDS_P1;SDS_P2;PMS_P1;PMS_P2;Temp;Humidity;BMP_temperature;BMP_pressure;BME280_temperature;BME280_humidity;BME280_pressure;Samples;Min_cycle;Max_cycle;Signal;HPM_P1;HPM_P2
2021/09/26 00:00:11;;;;;;;8.02;5.28;;;;;;;13.40;100.00;97971.31;5010519;28;20022;-78
2021/09/26 00:02:37;;;;;;;7.60;5.05;;;;;;;13.29;100.00;97964.94;4994418;28;20031;-78
2021/09/26 00:05:03;;;;;;;10.55;5.25;;;;;;;13.39;100.00;97993.78;5010342;28;20504;-78
2021/09/26 00:07:29;;;;;;;7.93;5.40;;;;;;;13.30;100.00;97982.78;4994266;28;20050;-78
2021/09/26 00:09:54;;;;;;;12.30;5.85;;;;;;;13.20;100.00;97977.13;4994482;28;20113;-78
2021/09/26 00:12:20;;;;;;;13.88;5.63;;;;;;;13.30;100.00;97994.38;4993865;28;20058;-78
2021/09/26 00:14:45;;;;;;;8.80;5.57;;;;;;;12.98;100.00;97933.84;4994291;28;20030;-78
2021/09/26 00:17:11;;;;;;;8.18;5.80;;;;;;;13.00;100.00;97939.97;4994023;28;20022;-78
2021/09/26 00:19:37;;;;;;;10.35;5.28;;;;;;;13.20;100.00;97961.03;4993654;28;20045;-79
2021/09/26 00:22:03;;;;;;;9.48;5.63;;;;;;;13.24;100.00;97967.06;4993859;28;20034;-78
2021/09/26 00:24:28;;;;;;;8.18;5.65;;;;;;;13.21;100.00;97967.25;4993635;28;20026;-78
2021/09/26 00:26:54;;;;;;;10.13;6.07;;;;;;;13.26;100.00;97973.22;4993971;28;20036;-78
2021/09/26 00:29:19;;;;;;;9.65;6.05;;;;;;;13.08;100.00;97937.66;4993645;28;20052;-78
2021/09/26 00:31:45;;;;;;;8.98;5.88;;;;;;;13.22;100.00;97972.53;4993746;28;20054;-78
2021/09/26 00:34:10;;;;;;;11.27;5.80;;;;;;;13.24;100.00;97984.03;4993041;28;20042;-78
2021/09/26 00:36:36;;;;;;;9.85;5.47;;;;;;;13.15;100.00;97957.78;4993267;28;20050;-79
2021/09/26 00:39:03;;;;;;;12.57;5.55;;;;;;;13.22;100.00;97964.47;4993327;28;20138;-78
2021/09/26 00:41:28;;;;;;;13.10;5.57;;;;;;;13.07;100.00;97933.22;5009713;28;20062;-78
2021/09/26 00:43:54;;;;;;;14.50;5.75;;;;;;;13.06;100.00;97969.09;4993274;28;20058;-79
2021/09/26 00:49:41;;;;;;;12.70;5.82;;;;;;;13.11;100.00;97993.84;4995176;28;20129;-78
2021/09/26 00:52:06;;;;;;;11.27;6.18;;;;;;;13.01;100.00;97976.59;4993213;28;20081;-77
2021/09/26 00:54:32;;;;;;;10.90;6.00;;;;;;;12.97;100.00;97975.06;4993299;28;20057;-78
2021/09/26 00:56:58;;;;;;;10.43;5.10;;;;;;;12.89;100.00;97970.19;4993132;28;20068;-78
2021/09/26 00:59:23;;;;;;;9.05;5.25;;;;;;;12.86;100.00;97966.81;4993172;28;20035;-78
2021/09/26 01:01:50;;;;;;;8.75;5.70;;;;;;;12.76;100.00;97971.09;4993179;28;20034;-79
2021/09/26 01:04:16;;;;;;;7.05;4.82;;;;;;;12.73;100.00;97960.53;5009198;28;20114;-78
2021/09/26 01:07:18;;;;;;;13.50;5.90;;;;;;;12.60;100.00;97962.28;4976474;28;20060;-78
2021/09/26 01:09:51;;;;;;;9.48;5.60;;;;;;;12.69;100.00;97985.84;4953590;28;20502;-79
2021/09/26 01:12:38;;;;;;;8.18;5.53;;;;;;;12.66;100.00;97986.03;4992627;28;20560;-78
2021/09/26 01:15:08;;;;;;;8.32;5.20;;;;;;;12.70;100.00;97976.84;5008625;28;20049;-79
2021/09/26 01:17:41;;;;;;;10.27;6.05;;;;;;;12.77;100.00;97975.47;4992755;28;20115;-78
2021/09/26 01:20:32;;;;;;;;;;;;;;;12.82;100.00;97976.91;4994349;28;20532;-78
2021/09/26 01:23:06;;;;;;;6.78;5.22;;;;;;;12.59;100.00;97958.72;4970921;28;20396;-78
2021/09/26 01:25:37;;;;;;;8.80;5.38;;;;;;;12.65;100.00;97976.25;5008909;28;20026;-79
2021/09/26 01:28:06;;;;;;;7.93;5.50;;;;;;;12.61;100.00;97977.41;4992555;28;20045;-78
2021/09/26 01:30:37;;;;;;;6.88;5.47;;;;;;;12.42;100.00;97954.44;5008732;28;20125;-79
2021/09/26 01:33:06;;;;;;;9.38;5.72;;;;;;;12.47;100.00;97972.91;5008531;28;20030;-78
2021/09/26 01:35:35;;;;;;;8.23;5.55;;;;;;;12.38;100.00;97957.38;4993651;28;20037;-78
2021/09/26 01:38:07;;;;;;;10.18;5.90;;;;;;;12.52;100.00;97980.69;5008605;28;20048;-78
2021/09/26 01:40:56;;;;;;;15.73;5.85;;;;;;;12.48;100.00;97980.00;4992973;28;20054;-78
2021/09/26 01:43:28;;;;;;;8.63;5.57;;;;;;;12.28;100.00;97957.09;4993408;28;20022;-78
2021/09/26 01:45:57;;;;;;;8.75;5.32;;;;;;;12.28;100.00;97975.88;4991861;28;20497;-78
2021/09/26 01:51:45;;;;;;;9.32;6.18;;;;;;;12.17;100.00;97950.69;4993951;28;20085;-78
2021/09/26 01:54:12;;;;;;;8.70;5.85;;;;;;;12.20;100.00;97972.81;4992017;28;20478;-78
2021/09/26 01:56:40;;;;;;;9.18;6.38;;;;;;;12.18;100.00;97976.56;4992032;28;20030;-78
2021/09/26 01:59:06;;;;;;;10.43;6.40;;;;;;;12.01;100.00;97950.75;4992012;28;20022;-78
2021/09/26 02:01:33;;;;;;;10.30;6.00;;;;;;;11.98;100.00;97939.34;5008813;28;20030;-78
2021/09/26 02:03:59;;;;;;;10.80;6.03;;;;;;;12.10;100.00;97968.09;4991468;28;20038;-77
2021/09/26 02:06:25;;;;;;;9.75;6.35;;;;;;;12.13;100.00;97973.28;5008586;28;20417;-78
2021/09/26 02:08:51;;;;;;;11.07;7.25;;;;;;;11.84;100.00;97919.59;4991959;28;20030;-78
2021/09/26 02:11:17;;;;;;;10.38;5.53;;;;;;;12.10;100.00;97960.91;5008320;28;20108;-78
2021/09/26 02:13:44;;;;;;;11.25;6.05;;;;;;;11.83;100.00;97925.94;4991661;28;20033;-79
2021/09/26 02:16:10;;;;;;;11.18;6.53;;;;;;;12.00;100.00;97958.91;4991670;28;20081;-78
2021/09/26 02:18:37;;;;;;;11.45;6.30;;;;;;;12.13;100.00;97968.78;4992074;28;20046;-79
2021/09/26 02:21:04;;;;;;;10.68;6.55;;;;;;;12.04;100.00;97958.63;4991798;28;20406;-78
2021/09/26 02:23:33;;;;;;;13.98;6.30;;;;;;;12.13;100.00;97971.47;4991767;28;20032;-78
2021/09/26 02:25:59;;;;;;;8.73;5.82;;;;;;;12.18;100.00;97979.25;4991638;28;20414;-78
2021/09/26 02:28:24;;;;;;;9.52;6.13;;;;;;;12.17;100.00;97972.13;4975317;28;20029;-78
2021/09/26 02:30:50;;;;;;;11.02;6.07;;;;;;;11.99;100.00;97949.13;4991686;28;20026;-78
2021/09/26 02:33:16;;;;;;;13.07;6.63;;;;;;;11.90;100.00;97937.16;4991640;28;20454;-78
2021/09/26 02:35:41;;;;;;;9.95;7.05;;;;;;;11.98;100.00;97968.84;4991219;28;20502;-78
2021/09/26 02:38:07;;;;;;;10.23;6.55;;;;;;;11.97;100.00;97954.56;4991872;28;20101;-78
2021/09/26 02:40:33;;;;;;;12.00;6.97;;;;;;;12.11;100.00;97976.06;4991651;28;20034;-78
2021/09/26 02:43:10;;;;;;;14.93;7.60;;;;;;;12.14;100.00;97978.56;4991918;28;20026;-78
2021/09/26 02:45:42;;;;;;;13.10;6.78;;;;;;;12.18;100.00;97981.91;4991930;28;20041;-78
2021/09/26 02:48:34;;;;;;;12.40;6.80;;;;;;;12.11;100.00;97984.13;4991630;28;20034;-78
2021/09/26 02:51:01;;;;;;;10.93;7.38;;;;;;;11.94;100.00;97954.75;4989783;28;20034;-78
2021/09/26 02:53:27;;;;;;;12.23;7.07;;;;;;;11.89;100.00;97935.44;4991507;28;20054;-78
2021/09/26 02:55:54;;;;;;;10.15;6.38;;;;;;;12.16;100.00;97982.00;4991873;28;20022;-78
2021/09/26 02:58:20;;;;;;;12.43;7.05;;;;;;;11.76;100.00;97913.00;4993938;28;20054;-79
2021/09/26 03:00:47;;;;;;;14.60;7.32;;;;;;;11.95;100.00;97941.28;4995443;28;20026;-78
2021/09/26 03:03:23;;;;;;;14.82;8.70;;;;;;;12.21;100.00;97987.09;4996298;28;20496;-78
2021/09/26 03:05:51;;;;;;;17.20;7.72;;;;;;;12.09;100.00;97977.97;4994965;28;20124;-78
2021/09/26 03:08:17;;;;;;;13.45;7.20;;;;;;;12.12;100.00;97977.78;4996224;28;20122;-78
2021/09/26 03:10:46;;;;;;;12.63;7.75;;;;;;;12.12;100.00;97985.81;4995434;28;20433;-78
2021/09/26 03:13:13;;;;;;;14.82;7.80;;;;;;;12.25;100.00;97994.84;5011385;28;20072;-78
2021/09/26 03:15:38;;;;;;;16.15;7.95;;;;;;;12.18;100.00;98006.91;5012099;28;20034;-78
2021/09/26 03:18:04;;;;;;;13.77;7.85;;;;;;;12.15;100.00;98007.06;4995123;28;20057;-78
2021/09/26 03:20:30;;;;;;;12.52;7.55;;;;;;;11.63;100.00;97942.31;4994640;28;20030;-78
2021/09/26 03:22:56;;;;;;;15.45;8.00;;;;;;;11.59;100.00;97942.59;5011160;28;20081;-78
2021/09/26 03:25:22;;;;;;;20.42;8.65;;;;;;;11.95;100.00;98012.78;4994673;28;20037;-78
2021/09/26 03:27:47;;;;;;;13.32;7.85;;;;;;;11.87;100.00;98017.75;4995166;28;20117;-78
2021/09/26 03:30:14;;;;;;;13.07;8.18;;;;;;;11.46;100.00;97955.88;4996284;28;20035;-78
2021/09/26 03:32:40;;;;;;;17.05;8.32;;;;;;;11.43;100.00;97959.59;4996176;28;20018;-78
2021/09/26 03:35:07;;;;;;;14.02;8.02;;;;;;;11.64;100.00;97994.09;5010937;28;20027;-78
2021/09/26 03:37:33;;;;;;;13.30;7.85;;;;;;;11.39;100.00;97960.72;4994410;28;20038;-78
2021/09/26 03:39:59;;;;;;;12.50;7.93;;;;;;;11.35;100.00;97966.34;4996068;28;20085;-78
2021/09/26 03:42:24;;;;;;;12.68;8.50;;;;;;;11.30;100.00;97947.88;5010566;28;20060;-78
2021/09/26 03:44:50;;;;;;;11.85;8.05;;;;;;;11.37;100.00;97975.16;4994861;28;20431;-78
2021/09/26 03:47:16;;;;;;;14.73;7.80;;;;;;;11.47;100.00;97988.88;4995695;28;20109;-77
2021/09/26 03:49:41;;;;;;;17.63;9.18;;;;;;;11.65;100.00;98009.22;4994552;28;20402;-78
2021/09/26 03:52:07;;;;;;;13.88;8.35;;;;;;;11.62;100.00;97996.00;4995722;28;20027;-77
2021/09/26 03:54:33;;;;;;;26.98;9.23;;;;;;;11.26;100.00;97951.66;5010436;28;20061;-78
2021/09/26 03:56:58;;;;;;;14.00;8.45;;;;;;;11.48;100.00;97999.50;4995651;28;20528;-77
2021/09/26 03:59:24;;;;;;;17.33;8.93;;;;;;;11.59;100.00;98004.22;4994153;28;20540;-78
2021/09/26 04:01:50;;;;;;;21.80;9.63;;;;;;;11.33;100.00;97962.88;4995354;28;20056;-77
2021/09/26 04:04:16;;;;;;;14.55;9.20;;;;;;;11.61;100.00;98011.22;4994383;28;20034;-79
2021/09/26 04:10:05;;;;;;;14.90;8.18;;;;;;;11.13;100.00;97965.88;4994888;28;20036;-78
2021/09/26 04:12:31;;;;;;;15.35;8.18;;;;;;;11.16;100.00;97974.59;4994983;28;20028;-77
2021/09/26 04:14:56;;;;;;;14.55;8.70;;;;;;;11.38;100.00;98001.00;4993756;28;20026;-78
2021/09/26 04:17:22;;;;;;;16.95;7.45;;;;;;;11.41;100.00;98015.03;4994960;28;20092;-78
2021/09/26 04:19:47;;;;;;;11.75;7.10;;;;;;;11.12;100.00;97974.84;5010009;28;20420;-78
2021/09/26 04:22:13;;;;;;;13.48;7.93;;;;;;;11.22;100.00;97997.47;5009625;28;20410;-77
2021/09/26 04:24:39;;;;;;;12.70;7.82;;;;;;;11.10;100.00;97971.41;4994936;28;20023;-77
2021/09/26 04:27:04;;;;;;;16.23;8.23;;;;;;;11.42;100.00;98018.59;4993544;28;20030;-77
2021/09/26 04:29:30;;;;;;;14.52;8.07;;;;;;;11.26;100.00;98007.91;4993603;28;20461;-77
2021/09/26 04:31:55;;;;;;;21.02;7.75;;;;;;;11.35;100.00;98010.03;4993696;28;20517;-77
2021/09/26 04:34:25;;;;;;;20.27;8.70;;;;;;;11.28;100.00;97981.91;4994692;28;20421;-78
2021/09/26 04:36:52;;;;;;;18.33;9.38;;;;;;;11.41;100.00;97996.28;4993612;28;20065;-78
2021/09/26 04:39:18;;;;;;;16.77;7.97;;;;;;;11.62;100.00;98029.03;4995003;28;20034;-77
2021/09/26 04:41:43;;;;;;;14.75;8.02;;;;;;;11.36;100.00;97985.00;4994581;28;20030;-78
2021/09/26 04:44:09;;;;;;;14.77;8.02;;;;;;;11.49;100.00;98001.22;4994553;28;20540;-77
2021/09/26 04:46:34;;;;;;;22.95;7.32;;;;;;;11.62;100.00;98022.81;4994501;28;20478;-77
2021/09/26 04:49:00;;;;;;;15.68;8.57;;;;;;;11.61;100.00;98027.28;4994596;28;20120;-77
2021/09/26 04:51:25;;;;;;;16.48;7.85;;;;;;;11.50;100.00;97996.72;4994151;28;20537;-78
2021/09/26 04:53:51;;;;;;;14.82;7.95;;;;;;;11.42;100.00;97987.31;4993093;28;20030;-78
2021/09/26 04:56:17;;;;;;;20.48;7.75;;;;;;;11.62;100.00;98029.03;4993047;28;20093;-77
2021/09/26 04:58:42;;;;;;;16.08;7.80;;;;;;;11.41;100.00;97974.88;4992853;28;20027;-77
2021/09/26 05:01:09;;;;;;;18.23;7.72;;;;;;;11.58;100.00;97984.59;5009480;28;20041;-77
2021/09/26 05:03:35;;;;;;;18.88;8.68;;;;;;;11.68;100.00;97988.47;4992423;28;20064;-79
2021/09/26 05:06:01;;;;;;;15.45;9.43;;;;;;;12.86;100.00;98031.25;4992992;28;20465;-77
2021/09/26 05:08:26;;;;;;;24.27;9.00;;;;;;;14.34;91.28;98015.09;4992800;28;20026;-77
2021/09/26 05:10:52;;;;;;;21.25;8.27;;;;;;;15.53;81.17;97992.97;5008866;28;20026;-77
2021/09/26 05:13:17;;;;;;;22.33;9.80;;;;;;;16.70;73.82;98013.59;5009059;28;20034;-78
2021/09/26 05:15:43;;;;;;;17.50;7.90;;;;;;;17.53;68.88;98020.31;4992525;28;20030;-78
2021/09/26 05:18:08;;;;;;;15.90;7.90;;;;;;;18.63;64.00;98017.28;4998604;28;20041;-78
2021/09/26 05:20:36;;;;;;;19.58;7.72;;;;;;;19.64;60.08;98061.59;4994865;28;20179;-78
2021/09/26 05:23:02;;;;;;;15.20;7.40;;;;;;;20.22;57.11;98016.34;5012102;28;20103;-79
2021/09/26 05:25:27;;;;;;;23.83;6.85;;;;;;;21.43;53.27;98018.25;5012082;28;20552;-77
2021/09/26 05:27:54;;;;;;;14.48;6.90;;;;;;;21.32;52.30;98062.00;5013367;28;20030;-77
2021/09/26 05:30:19;;;;;;;15.30;6.50;;;;;;;22.29;50.48;98046.81;5011984;28;20160;-78
2021/09/26 05:32:45;;;;;;;20.80;8.38;;;;;;;23.00;47.15;98001.22;5012946;28;20045;-78
2021/09/26 05:35:10;;;;;;;19.42;7.18;;;;;;;23.49;46.52;98037.88;5013515;28;20556;-78
2021/09/26 05:37:36;;;;;;;14.52;7.78;;;;;;;23.42;46.06;98028.59;5012957;28;20506;-78
2021/09/26 05:40:02;;;;;;;20.25;8.02;;;;;;;24.17;44.68;98027.72;4995450;28;20030;-79
2021/09/26 05:42:28;;;;;;;23.13;8.55;;;;;;;23.70;45.16;97997.31;5011901;28;20113;-79
2021/09/26 05:44:53;;;;;;;13.68;7.43;;;;;;;24.62;43.64;98033.56;4993873;28;20204;-78
2021/09/26 05:47:19;;;;;;;11.40;7.35;;;;;;;23.11;46.32;98014.59;4993630;28;20034;-79
2021/09/26 05:49:45;;;;;;;16.02;7.10;;;;;;;23.15;47.31;98040.56;5004871;28;20028;-79
2021/09/26 05:52:10;;;;;;;13.50;7.03;;;;;;;25.53;43.19;98049.75;4995198;28;20022;-79
2021/09/26 05:54:38;;;;;;;17.52;7.43;;;;;;;25.84;41.43;98031.47;5013481;28;20034;-78
2021/09/26 05:57:04;;;;;;;16.42;7.28;;;;;;;26.74;40.14;98027.09;4979787;28;20041;-80
2021/09/26 05:59:35;;;;;;;11.80;7.38;;;;;;;26.65;39.73;98036.44;4993229;28;20050;-79
2021/09/26 06:02:01;;;;;;;11.32;7.82;;;;;;;26.24;40.76;98042.22;4987961;28;20104;-79
2021/09/26 06:04:27;;;;;;;12.55;7.22;;;;;;;26.80;40.13;98046.47;4990246;28;20037;-79
2021/09/26 06:06:52;;;;;;;11.00;6.80;;;;;;;27.03;38.93;98012.63;4992343;28;20029;-79
2021/09/26 06:09:18;;;;;;;17.45;7.20;;;;;;;26.88;39.06;98034.56;4989483;28;20482;-79
2021/09/26 06:11:44;;;;;;;11.07;7.40;;;;;;;27.21;38.51;98046.94;4981177;28;20038;-82
2021/09/26 06:14:10;;;;;;;17.88;10.68;;;;;;;27.22;38.75;98028.56;4992163;28;20041;-78
2021/09/26 06:16:35;;;;;;;14.50;8.07;;;;;;;27.56;38.05;98031.66;4983077;28;20034;-78
2021/09/26 06:19:01;;;;;;;76.32;23.17;;;;;;;27.84;37.67;98051.91;4995997;28;20030;-77
2021/09/26 06:21:27;;;;;;;13.65;8.07;;;;;;;27.69;37.54;98055.69;5010321;28;20030;-81
2021/09/26 06:23:52;;;;;;;17.20;9.15;;;;;;;28.95;35.71;98035.84;4975922;28;20034;-82
2021/09/26 06:26:20;;;;;;;12.40;8.05;;;;;;;28.85;35.98;98017.97;4975816;28;20069;-85
2021/09/26 06:28:45;;;;;;;16.80;8.02;;;;;;;29.31;35.04;98035.75;4981386;28;20033;-80
2021/09/26 06:31:12;;;;;;;14.30;7.55;;;;;;;29.61;34.62;98033.59;5014130;28;20489;-81
2021/09/26 06:33:40;;;;;;;11.15;7.68;;;;;;;29.68;34.38;98029.00;5010254;28;20032;-78
2021/09/26 06:36:07;;;;;;;10.40;8.00;;;;;;;29.09;34.81;98019.41;5000984;28;20042;-78
2021/09/26 06:38:32;;;;;;;17.33;8.23;;;;;;;30.13;33.37;98004.56;5003898;28;20442;-78
2021/09/26 06:40:58;;;;;;;14.27;7.70;;;;;;;30.42;33.56;98034.66;4986760;28;20116;-79
2021/09/26 06:43:23;;;;;;;13.30;8.20;;;;;;;31.04;33.25;98039.91;4989666;28;20073;-82
2021/09/26 06:45:49;;;;;;;22.20;10.02;;;;;;;31.72;31.95;98026.66;4993662;28;20026;-80
2021/09/26 06:48:14;;;;;;;19.02;10.40;;;;;;;30.83;32.57;98031.75;5007240;28;20049;-78
2021/09/26 06:50:40;;;;;;;22.30;11.93;;;;;;;29.96;33.85;98023.44;5006648;28;20022;-78
2021/09/26 06:53:05;;;;;;;22.08;11.27;;;;;;;30.08;33.85;98030.06;4958637;28;20072;-79
2021/09/26 06:55:31;;;;;;;27.88;10.90;;;;;;;29.85;34.57;98040.56;4975343;28;20057;-80
2021/09/26 06:57:57;;;;;;;27.05;9.68;;;;;;;30.56;33.75;98014.28;4991182;28;20058;-80
2021/09/26 07:00:22;;;;;;;27.30;9.35;;;;;;;31.02;32.77;98033.72;4974817;28;20030;-77
2021/09/26 07:02:48;;;;;;;14.73;9.13;;;;;;;30.36;33.24;97992.13;4992082;28;20053;-79
2021/09/26 07:05:14;;;;;;;12.98;9.07;;;;;;;29.51;34.13;98003.63;4974849;28;20411;-77
2021/09/26 07:07:39;;;;;;;22.63;9.27;;;;;;;30.71;33.26;98041.72;4991528;28;20109;-79
2021/09/26 07:10:05;;;;;;;17.27;8.10;;;;;;;29.98;33.85;98005.59;4975908;28;20045;-79
2021/09/26 07:12:31;;;;;;;14.35;8.38;;;;;;;30.35;33.57;98012.53;4992340;28;20030;-78
2021/09/26 07:15:01;;;;;;;19.38;8.73;;;;;;;30.77;32.60;98024.28;4991215;28;20486;-79
2021/09/26 07:17:26;;;;;;;9.63;6.95;;;;;;;30.75;32.65;98001.56;4990968;28;20045;-78
2021/09/26 07:19:52;;;;;;;12.73;8.25;;;;;;;30.96;32.68;98004.16;4994692;28;20033;-81
2021/09/26 07:22:23;;;;;;;12.10;7.40;;;;;;;30.19;33.59;98028.59;4974666;28;20522;-80
2021/09/26 07:24:49;;;;;;;17.05;7.65;;;;;;;30.73;32.80;97999.03;4959663;28;20413;-79
2021/09/26 07:30:36;;;;;;;29.02;7.80;;;;;;;30.48;32.74;98001.53;4993364;28;20093;-79
2021/09/26 07:33:02;;;;;;;16.23;6.28;;;;;;;30.73;33.37;98025.81;4991247;28;20034;-80
2021/09/26 07:35:27;;;;;;;13.98;5.82;;;;;;;29.55;33.81;97988.38;4974653;28;20464;-80
2021/09/26 07:37:53;;;;;;;10.90;6.05;;;;;;;30.48;33.47;98012.59;4992135;28;20113;-79
2021/09/26 07:40:19;;;;;;;11.23;5.90;;;;;;;31.23;32.03;98011.38;4992262;28;20026;-80
2021/09/26 07:42:46;;;;;;;17.10;6.40;;;;;;;31.94;31.53;98000.38;4974769;28;20162;-81
2021/09/26 07:45:13;;;;;;;10.77;5.50;;;;;;;32.25;30.56;98010.69;4993115;28;20034;-79
2021/09/26 07:47:39;;;;;;;10.82;5.65;;;;;;;33.16;29.65;98000.97;4996417;28;20466;-80
2021/09/26 07:50:05;;;;;;;14.95;6.05;;;;;;;33.44;29.29;97990.22;4961884;28;20081;-80
2021/09/26 07:52:31;;;;;;;15.98;6.35;;;;;;;32.69;30.32;98013.47;4995843;28;20100;-79
2021/09/26 07:54:57;;;;;;;11.43;5.40;;;;;;;32.70;30.05;98029.84;4978185;28;20528;-79
2021/09/26 07:57:24;;;;;;;11.38;5.15;;;;;;;33.47;29.08;97998.06;4996224;28;20088;-80
2021/09/26 07:59:50;;;;;;;9.73;5.35;;;;;;;33.66;28.85;98002.59;5016585;28;20030;-78
2021/09/26 08:02:16;;;;;;;9.55;5.13;;;;;;;33.62;29.19;98040.25;5006370;28;20123;-82
2021/09/26 08:04:42;;;;;;;15.82;5.40;;;;;;;33.28;30.67;98035.22;5002709;28;20034;-85
2021/09/26 08:07:07;;;;;;;14.32;5.47;;;;;;;34.02;28.91;98031.47;4984851;28;20034;-79
2021/09/26 08:09:33;;;;;;;7.93;5.20;;;;;;;34.66;27.22;98023.41;5003859;28;20044;-79
2021/09/26 08:11:59;;;;;;;8.35;5.03;;;;;;;35.33;26.92;98032.41;5004753;28;20036;-79
2021/09/26 08:14:25;;;;;;;9.30;4.82;;;;;;;35.93;26.18;98032.19;5013977;28;20034;-81
2021/09/26 08:16:50;;;;;;;14.57;5.65;;;;;;;36.47;25.22;98019.69;5005898;28;20087;-80
2021/09/26 08:19:16;;;;;;;11.23;4.95;;;;;;;36.31;25.41;98016.59;5024416;28;20033;-79
2021/09/26 08:21:42;;;;;;;10.25;5.25;;;;;;;36.47;25.70;98016.91;4988672;28;20029;-78
2021/09/26 08:24:07;;;;;;;12.95;4.72;;;;;;;36.37;25.61;98011.97;5012202;28;20121;-78
2021/09/26 08:26:34;;;;;;;11.13;5.25;;;;;;;37.08;24.84;98011.44;5001469;28;20022;-78
2021/09/26 08:29:00;;;;;;;9.50;5.53;;;;;;;37.16;24.79;98011.03;4989556;28;20505;-80
2021/09/26 08:31:26;;;;;;;16.38;10.50;;;;;;;36.55;25.27;98011.81;4995200;28;20037;-78
2021/09/26 08:33:51;;;;;;;12.07;5.32;;;;;;;36.53;25.63;98005.63;4987931;28;20049;-79
2021/09/26 08:36:17;;;;;;;10.57;5.53;;;;;;;36.81;25.36;97994.47;4991678;28;20506;-79
2021/09/26 08:38:42;;;;;;;12.32;4.80;;;;;;;37.41;24.96;97999.41;4993662;28;20109;-79
2021/09/26 08:41:09;;;;;;;18.50;6.60;;;;;;;37.86;23.97;98002.06;5011866;28;20026;-78
2021/09/26 08:43:35;;;;;;;15.73;6.22;;;;;;;37.80;24.65;97992.78;4996197;28;20026;-79
2021/09/26 08:46:01;;;;;;;5.72;4.30;;;;;;;38.57;22.50;97984.31;5014955;28;20026;-82
2021/09/26 08:48:28;;;;;;;9.25;4.13;;;;;;;39.28;21.92;97965.44;5018673;28;20056;-81
2021/09/26 08:50:54;;;;;;;9.55;3.65;;;;;;;39.56;21.36;97982.69;5004270;28;20441;-80
2021/09/26 08:53:24;;;;;;;6.60;3.17;;;;;;;39.17;21.52;97963.59;5006538;28;20038;-81
2021/09/26 08:55:50;;;;;;;4.93;3.15;;;;;;;38.16;22.09;97962.53;5001055;28;20065;-80
2021/09/26 08:58:17;;;;;;;5.28;3.05;;;;;;;38.37;22.14;97958.88;5025934;28;20469;-80
2021/09/26 09:00:43;;;;;;;6.78;4.05;;;;;;;38.33;22.75;97960.50;4999907;28;20026;-90
2021/09/26 09:03:15;;;;;;;6.35;4.65;;;;;;;38.94;22.15;97948.88;4991866;28;20106;-90
2021/09/26 09:05:42;;;;;;;8.57;4.20;;;;;;;39.20;21.51;97949.06;4977050;28;20064;-80
2021/09/26 09:08:18;;;;;;;6.28;3.75;;;;;;;39.80;21.05;97963.56;5015942;28;20022;-82
2021/09/26 09:10:46;;;;;;;9.57;3.80;;;;;;;40.03;20.77;97932.25;4988355;28;20042;-82
2021/09/26 09:13:16;;;;;;;6.20;3.95;;;;;;;40.29;20.21;97954.81;4994686;28;20034;-78
2021/09/26 09:15:50;;;;;;;6.47;4.20;;;;;;;40.90;19.87;97938.97;4993312;28;20454;-78
2021/09/26 09:18:16;;;;;;;9.75;3.97;;;;;;;41.33;19.93;97954.44;5009094;28;20145;-78
2021/09/26 09:20:42;;;;;;;3.00;2.70;;;;;;;40.64;18.51;97932.47;5008685;28;20029;-77
2021/09/26 09:23:13;;;;;;;4.60;2.67;;;;;;;40.88;18.92;97941.22;4997173;28;20026;-78
2021/09/26 09:25:58;;;;;;;4.78;3.08;;;;;;;41.13;18.29;97950.50;5009731;28;20058;-80
2021/09/26 09:28:26;;;;;;;2.20;2.00;;;;;;;40.29;18.18;97932.38;5011860;28;20029;-80
2021/09/26 09:31:00;;;;;;;3.67;2.40;;;;;;;40.82;17.80;97936.75;4988252;28;20049;-81
2021/09/26 09:33:38;;;;;;;7.57;3.35;;;;;;;41.33;17.73;97943.22;4994994;28;20112;-80
2021/09/26 09:36:04;;;;;;;6.93;3.97;;;;;;;41.17;18.13;97931.13;4999757;28;20069;-80
2021/09/26 09:38:29;;;;;;;6.68;4.75;;;;;;;41.42;17.68;97938.72;5013266;28;20049;-80
2021/09/26 09:40:56;;;;;;;5.45;3.90;;;;;;;41.21;17.85;97911.75;5004330;28;20101;-79
2021/09/26 09:43:22;;;;;;;5.95;3.20;;;;;;;41.24;17.69;97933.66;4997983;28;20023;-81
2021/09/26 09:45:52;;;;;;;6.15;3.70;;;;;;;41.10;18.77;97944.66;4993018;28;20057;-81
2021/09/26 09:48:30;;;;;;;5.40;3.55;;;;;;;40.64;19.93;97935.28;5012317;28;20034;-80
2021/09/26 09:51:03;;;;;;;5.95;3.55;;;;;;;40.14;19.11;97932.34;4981542;28;20506;-79
2021/09/26 09:53:39;;;;;;;5.55;1.95;;;;;;;39.99;18.88;97924.69;5007598;28;20097;-79
2021/09/26 09:56:07;;;;;;;6.50;4.30;;;;;;;39.56;19.36;97929.47;5021949;28;20477;-84
2021/09/26 09:59:07;;;;;;;6.10;2.88;;;;;;;38.74;19.88;97903.03;5013627;28;20026;-80
2021/09/26 10:01:37;;;;;;;4.88;2.72;;;;;;;38.33;19.68;97926.94;4970567;28;20042;-77
2021/09/26 10:04:04;;;;;;;1.75;1.63;;;;;;;38.93;19.82;97901.56;4995773;28;20022;-78
2021/09/26 10:06:46;;;;;;;3.63;2.40;;;;;;;39.53;18.96;97915.19;5000474;28;20383;-81
2021/09/26 10:09:15;;;;;;;6.60;3.20;;;;;;;39.57;19.42;97919.09;5000251;28;20114;-81
2021/09/26 10:12:08;;;;;;;3.65;3.30;;;;;;;39.71;18.72;97914.75;5004140;28;20026;-81
2021/09/26 10:14:35;;;;;;;4.55;1.83;;;;;;;38.29;19.12;97897.81;4994596;28;20061;-80
2021/09/26 10:17:03;;;;;;;2.90;2.63;;;;;;;37.65;20.25;97896.75;4996240;28;20449;-79
2021/09/26 10:19:30;;;;;;;16.10;14.25;;;;;;;37.88;20.28;97888.94;4996700;28;20025;-80
2021/09/26 10:21:58;;;;;;;9.73;3.28;;;;;;;37.20;20.51;97882.94;4995537;28;20516;-80
2021/09/26 10:24:30;;;;;;;10.70;3.55;;;;;;;39.23;18.46;97900.97;5011410;28;20026;-79
2021/09/26 10:26:58;;;;;;;6.82;3.97;;;;;;;39.23;19.02;97893.41;4978606;28;20124;-80
2021/09/26 10:29:27;;;;;;;2.67;2.47;;;;;;;39.38;18.86;97878.66;4978632;28;20034;-80
2021/09/26 10:31:53;;;;;;;5.32;4.80;;;;;;;39.51;18.29;97883.78;5011940;28;20083;-81
2021/09/26 10:34:20;;;;;;;4.18;2.72;;;;;;;39.10;18.97;97873.41;5001680;28;20106;-81
2021/09/26 10:36:47;;;;;;;4.53;3.70;;;;;;;39.64;18.42;97879.63;5003649;28;20057;-81
2021/09/26 10:39:14;;;;;;;3.75;2.50;;;;;;;40.65;17.62;97880.84;4997640;28;20030;-80
2021/09/26 10:42:04;;;;;;;3.65;2.90;;;;;;;40.55;17.65;97878.03;4996476;28;20030;-79
2021/09/26 10:44:31;;;;;;;6.28;2.55;;;;;;;40.74;18.10;97873.56;5004650;28;20034;-80
2021/09/26 10:47:15;;;;;;;4.95;2.50;;;;;;;41.61;17.25;97866.75;5007763;28;20030;-81
2021/09/26 10:49:44;;;;;;;6.03;3.08;;;;;;;39.51;18.71;97864.16;4999346;28;20453;-80
2021/09/26 10:52:34;;;;;;;7.53;2.72;;;;;;;38.61;19.28;97865.16;5001977;28;20041;-81
2021/09/26 10:55:18;;;;;;;6.10;2.50;;;;;;;39.67;18.77;97862.31;4986726;28;20061;-80
2021/09/26 10:57:48;;;;;;;4.05;3.30;;;;;;;41.06;17.38;97854.50;5003395;28;20421;-80
2021/09/26 11:00:15;;;;;;;2.30;2.10;;;;;;;42.49;16.28;97847.19;4985841;28;20121;-81
2021/09/26 11:02:45;;;;;;;3.97;2.50;;;;;;;42.69;16.13;97852.69;5004916;28;20502;-82
2021/09/26 11:05:32;;;;;;;2.40;2.20;;;;;;;42.71;16.33;97846.75;5003065;28;20030;-81
2021/09/26 11:07:58;;;;;;;2.50;2.30;;;;;;;43.59;15.42;97847.34;5005024;28;20522;-82
2021/09/26 11:10:38;;;;;;;11.73;2.85;;;;;;;43.31;15.74;97839.75;5010119;28;20118;-82
2021/09/26 11:13:15;;;;;;;3.25;2.30;;;;;;;43.77;15.32;97826.00;5004368;28;20046;-82
2021/09/26 11:16:09;;;;;;;4.97;2.35;;;;;;;43.27;15.51;97818.94;5005352;28;20026;-81
2021/09/26 11:18:53;;;;;;;5.53;2.63;;;;;;;42.89;16.11;97829.13;5005171;28;20034;-82
2021/09/26 11:21:37;;;;;;;5.05;2.90;;;;;;;43.26;15.60;97823.72;5007964;28;20073;-81
2021/09/26 11:24:08;;;;;;;2.67;2.33;;;;;;;42.63;16.47;97814.47;5009079;28;20422;-81
2021/09/26 11:26:59;;;;;;;2.80;2.53;;;;;;;41.52;17.03;97815.91;5012478;28;20093;-81
2021/09/26 11:29:37;;;;;;;2.85;2.30;;;;;;;42.91;16.20;97819.28;4997076;28;20650;-81
2021/09/26 11:32:04;;;;;;;2.65;2.45;;;;;;;43.12;16.12;97817.97;5011487;28;20034;-82
2021/09/26 11:34:36;;;;;;;4.22;2.72;;;;;;;42.74;16.40;97812.38;5011718;28;20022;-81
2021/09/26 11:37:02;;;;;;;3.97;3.28;;;;;;;41.42;17.39;97799.09;5011067;28;20513;-81
2021/09/26 11:39:28;;;;;;;4.53;2.30;;;;;;;40.16;18.32;97801.94;5025072;28;20045;-81
2021/09/26 11:41:55;;;;;;;4.45;2.85;;;;;;;40.65;17.99;97795.81;5009491;28;20082;-80